KLM67E EHAM-LGAV
Flight info
| Callsign | KLM67E |
|---|---|
| Flight time | N/A |
| Altitude | 37000 |
| Route | EDUPO Z739 MISGO DCT DOJOH DCT DODEN DCT NEGIX DCT DINKU DCT BESNI DCT LATLO DCT OBEDI DCT MAGAM DCT IRDIV DCT PODOB DCT MEDUX UM867 KOGAT DCT TALAS UN130 TSL UL617 SKP UM749 ROPOX |
| Aircraft | B739/M-SDE2E3FGHIRWXY/S |
Departure
| Time | 2026-04-30 09:49 |
|---|---|
| Airport | Amsterdam Airport Schiphol (EHAM) |
Arrival
| Time | N/A |
|---|---|
| Airport | Athens Eleftherios Venizelos International Airport (LGAV) |
| Time | Latitude | Longitude | Altitude | Speed | Heading |
|---|---|---|---|---|---|
| 2026-04-30 09:13 | 52.30429 | 4.76667 | 0 ft | 0 kts | 28° |
| 2026-04-30 09:36 | 52.30416 | 4.76656 | 0 ft | 2 kts | 28° |
| 2026-04-30 09:36 | 52.30403 | 4.76644 | 0 ft | 2 kts | 30° |
| 2026-04-30 09:37 | 52.30392 | 4.76628 | 0 ft | 2 kts | 58° |
| 2026-04-30 09:37 | 52.30386 | 4.76605 | 0 ft | 2 kts | 78° |
| 2026-04-30 09:37 | 52.30386 | 4.76581 | 0 ft | 2 kts | 99° |
| 2026-04-30 09:37 | 52.30389 | 4.76562 | 0 ft | 0 kts | 116° |
| 2026-04-30 09:38 | 52.30392 | 4.76552 | 0 ft | 0 kts | 119° |
| 2026-04-30 09:40 | 52.30381 | 4.76585 | 0 ft | 7 kts | 119° |
| 2026-04-30 09:40 | 52.30339 | 4.76700 | 0 ft | 14 kts | 128° |
| 2026-04-30 09:40 | 52.30316 | 4.76831 | 0 ft | 12 kts | 66° |
| 2026-04-30 09:40 | 52.30379 | 4.76996 | 0 ft | 20 kts | 57° |
| 2026-04-30 09:41 | 52.30464 | 4.77219 | 0 ft | 22 kts | 59° |
| 2026-04-30 09:41 | 52.30537 | 4.77412 | 0 ft | 18 kts | 58° |
| 2026-04-30 09:41 | 52.30619 | 4.77571 | 0 ft | 18 kts | 27° |
| 2026-04-30 09:41 | 52.30757 | 4.77598 | 0 ft | 23 kts | 3° |
| 2026-04-30 09:42 | 52.30935 | 4.77615 | 0 ft | 27 kts | 3° |
| 2026-04-30 09:42 | 52.31132 | 4.77633 | 0 ft | 28 kts | 3° |
| 2026-04-30 09:42 | 52.31321 | 4.77651 | 0 ft | 26 kts | 3° |
| 2026-04-30 09:42 | 52.31466 | 4.77624 | 0 ft | 17 kts | 326° |
| 2026-04-30 09:43 | 52.31558 | 4.77505 | 0 ft | 18 kts | 343° |
| 2026-04-30 09:43 | 52.31681 | 4.77569 | 0 ft | 19 kts | 50° |
| 2026-04-30 09:43 | 52.31771 | 4.77691 | 0 ft | 15 kts | 7° |
| 2026-04-30 09:43 | 52.31886 | 4.77703 | 0 ft | 19 kts | 3° |
| 2026-04-30 09:44 | 52.32012 | 4.77740 | 0 ft | 13 kts | 35° |
| 2026-04-30 09:44 | 52.32039 | 4.77775 | 0 ft | 0 kts | 41° |
| 2026-04-30 09:44 | 52.32047 | 4.77786 | 0 ft | 5 kts | 41° |
| 2026-04-30 09:44 | 52.32088 | 4.77845 | 0 ft | 0 kts | 42° |
| 2026-04-30 09:46 | 52.32095 | 4.77855 | 0 ft | 4 kts | 42° |
| 2026-04-30 09:46 | 52.32124 | 4.77953 | 0 ft | 15 kts | 90° |
| 2026-04-30 09:46 | 52.32083 | 4.78015 | 0 ft | 0 kts | 182° |
| 2026-04-30 09:47 | 52.32079 | 4.78014 | 0 ft | 3 kts | 182° |
| 2026-04-30 09:48 | 52.31883 | 4.77997 | 0 ft | 60 kts | 182° |
| 2026-04-30 09:48 | 52.31242 | 4.77935 | 0 ft | 122 kts | 182° |
| 2026-04-30 09:48 | 52.30217 | 4.77841 | 0 ft | 171 kts | 181° |
| 2026-04-30 09:48 | 52.28923 | 4.77647 | 232 ft | 191 kts | 182° |
| 2026-04-30 09:49 | 52.27591 | 4.77404 | 692 ft | 199 kts | 175° |
| 2026-04-30 09:49 | 52.26251 | 4.77905 | 1174 ft | 205 kts | 148° |
| 2026-04-30 09:49 | 52.25205 | 4.79538 | 1561 ft | 220 kts | 118° |
| 2026-04-30 09:49 | 52.24837 | 4.82052 | 1929 ft | 241 kts | 87° |
| 2026-04-30 09:50 | 52.25158 | 4.84775 | 2574 ft | 251 kts | 78° |
| 2026-04-30 09:50 | 52.25504 | 4.87600 | 3257 ft | 257 kts | 86° |
| 2026-04-30 09:50 | 52.25464 | 4.90502 | 4019 ft | 259 kts | 94° |
| 2026-04-30 09:50 | 52.25341 | 4.93426 | 4768 ft | 263 kts | 92° |
| 2026-04-30 09:51 | 52.25279 | 4.96258 | 5484 ft | 266 kts | 91° |
| 2026-04-30 09:51 | 52.25223 | 4.99310 | 6244 ft | 270 kts | 92° |
| 2026-04-30 09:51 | 52.25172 | 5.01341 | 6740 ft | 271 kts | 93° |
| 2026-04-30 09:51 | 52.25062 | 5.04439 | 7500 ft | 276 kts | 94° |
| 2026-04-30 09:52 | 52.24946 | 5.07564 | 8250 ft | 279 kts | 92° |
| 2026-04-30 09:52 | 52.24862 | 5.10721 | 9023 ft | 272 kts | 92° |
| 2026-04-30 09:52 | 52.24798 | 5.12988 | 9566 ft | 254 kts | 93° |
| 2026-04-30 09:52 | 52.24728 | 5.15220 | 10159 ft | 254 kts | 93° |
| 2026-04-30 09:53 | 52.24641 | 5.18098 | 10828 ft | 260 kts | 93° |
| 2026-04-30 09:53 | 52.24552 | 5.21082 | 11326 ft | 271 kts | 93° |
| 2026-04-30 09:53 | 52.24416 | 5.24208 | 11828 ft | 282 kts | 99° |
| 2026-04-30 09:53 | 52.24324 | 5.24968 | 11944 ft | 285 kts | 104° |
| 2026-04-30 09:54 | 52.23515 | 5.27824 | 12433 ft | 297 kts | 122° |
| 2026-04-30 09:54 | 52.22278 | 5.30586 | 12934 ft | 308 kts | 123° |
| 2026-04-30 09:54 | 52.21027 | 5.33453 | 13433 ft | 318 kts | 122° |
| 2026-04-30 09:54 | 52.19735 | 5.36467 | 13935 ft | 329 kts | 122° |
| 2026-04-30 09:55 | 52.18400 | 5.39549 | 14432 ft | 338 kts | 123° |
| 2026-04-30 09:55 | 52.17045 | 5.42660 | 14924 ft | 342 kts | 123° |
| 2026-04-30 09:55 | 52.15648 | 5.45869 | 15429 ft | 345 kts | 123° |
| 2026-04-30 09:55 | 52.14270 | 5.49029 | 15924 ft | 348 kts | 123° |
| 2026-04-30 09:56 | 52.12855 | 5.52266 | 16427 ft | 352 kts | 123° |
| 2026-04-30 09:56 | 52.11443 | 5.55495 | 16924 ft | 356 kts | 123° |
| 2026-04-30 09:56 | 52.10003 | 5.58788 | 17404 ft | 361 kts | 125° |
| 2026-04-30 09:56 | 52.08543 | 5.62132 | 17930 ft | 366 kts | 123° |
| 2026-04-30 09:57 | 52.07057 | 5.65490 | 18435 ft | 362 kts | 124° |
| 2026-04-30 09:57 | 52.05554 | 5.68774 | 18933 ft | 368 kts | 127° |
| 2026-04-30 09:57 | 52.04666 | 5.70481 | 19203 ft | 371 kts | 129° |
| 2026-04-30 09:58 | 52.02713 | 5.74021 | 19768 ft | 377 kts | 129° |
| 2026-04-30 09:58 | 52.00983 | 5.77222 | 20265 ft | 381 kts | 129° |
| 2026-04-30 09:58 | 51.99241 | 5.80477 | 20765 ft | 385 kts | 129° |
| 2026-04-30 09:59 | 51.95718 | 5.87032 | 21759 ft | 391 kts | 131° |
| 2026-04-30 09:59 | 51.92141 | 5.93717 | 22762 ft | 391 kts | 129° |
| 2026-04-30 10:00 | 51.88557 | 6.00377 | 23760 ft | 394 kts | 128° |
| 2026-04-30 10:00 | 51.86750 | 6.03731 | 24261 ft | 395 kts | 128° |
| 2026-04-30 10:01 | 51.83138 | 6.10400 | 25262 ft | 395 kts | 129° |
| 2026-04-30 10:01 | 51.81342 | 6.13693 | 25757 ft | 394 kts | 129° |
| 2026-04-30 10:01 | 51.79534 | 6.17006 | 26258 ft | 393 kts | 128° |
| 2026-04-30 10:02 | 51.75843 | 6.23769 | 26520 ft | 411 kts | 128° |
| 2026-04-30 10:02 | 51.73952 | 6.27222 | 26683 ft | 418 kts | 129° |
| 2026-04-30 10:02 | 51.72019 | 6.30743 | 26953 ft | 423 kts | 129° |
| 2026-04-30 10:02 | 51.70060 | 6.34307 | 27265 ft | 426 kts | 128° |
| 2026-04-30 10:03 | 51.68097 | 6.37873 | 27610 ft | 428 kts | 128° |
| 2026-04-30 10:03 | 51.66110 | 6.41480 | 27926 ft | 431 kts | 128° |
| 2026-04-30 10:03 | 51.64129 | 6.45070 | 28264 ft | 432 kts | 128° |
| 2026-04-30 10:03 | 51.62141 | 6.48669 | 28584 ft | 434 kts | 128° |
| 2026-04-30 10:04 | 51.60144 | 6.52281 | 28886 ft | 436 kts | 128° |
| 2026-04-30 10:04 | 51.58101 | 6.55971 | 29177 ft | 439 kts | 128° |
| 2026-04-30 10:04 | 51.56088 | 6.59602 | 29489 ft | 440 kts | 128° |
| 2026-04-30 10:04 | 51.54053 | 6.63266 | 29766 ft | 442 kts | 128° |
| 2026-04-30 10:05 | 51.51986 | 6.66982 | 30034 ft | 444 kts | 129° |
| 2026-04-30 10:05 | 51.49934 | 6.70667 | 30280 ft | 447 kts | 129° |
| 2026-04-30 10:05 | 51.47851 | 6.74403 | 30560 ft | 448 kts | 129° |
| 2026-04-30 10:05 | 51.45767 | 6.78134 | 30805 ft | 450 kts | 129° |
| 2026-04-30 10:06 | 51.43689 | 6.81844 | 30907 ft | 446 kts | 129° |
| 2026-04-30 10:06 | 51.41643 | 6.85496 | 31283 ft | 444 kts | 129° |
| 2026-04-30 10:06 | 51.39536 | 6.89199 | 31583 ft | 446 kts | 130° |
| 2026-04-30 10:06 | 51.37319 | 6.92720 | 31817 ft | 448 kts | 133° |
| 2026-04-30 10:07 | 51.35076 | 6.96099 | 32156 ft | 447 kts | 133° |
| 2026-04-30 10:07 | 51.32835 | 6.99517 | 32437 ft | 446 kts | 132° |
| 2026-04-30 10:07 | 51.30610 | 7.02956 | 32667 ft | 447 kts | 132° |
| 2026-04-30 10:07 | 51.28371 | 7.06416 | 32988 ft | 445 kts | 132° |
| 2026-04-30 10:08 | 51.26148 | 7.09839 | 33261 ft | 444 kts | 132° |
| 2026-04-30 10:08 | 51.23928 | 7.13254 | 33490 ft | 444 kts | 132° |
| 2026-04-30 10:08 | 51.21715 | 7.16660 | 33744 ft | 443 kts | 132° |
| 2026-04-30 10:08 | 51.19508 | 7.20053 | 33984 ft | 443 kts | 132° |
| 2026-04-30 10:09 | 51.17305 | 7.23435 | 34202 ft | 442 kts | 132° |
| 2026-04-30 10:09 | 51.15081 | 7.26846 | 34389 ft | 443 kts | 132° |
| 2026-04-30 10:09 | 51.12863 | 7.30244 | 34586 ft | 442 kts | 132° |
| 2026-04-30 10:09 | 51.10655 | 7.33623 | 34752 ft | 443 kts | 132° |
| 2026-04-30 10:10 | 51.08434 | 7.37018 | 34929 ft | 443 kts | 132° |
| 2026-04-30 10:10 | 51.06216 | 7.40400 | 35094 ft | 443 kts | 132° |
| 2026-04-30 10:10 | 51.04001 | 7.43776 | 35243 ft | 443 kts | 132° |
| 2026-04-30 10:10 | 51.01792 | 7.47137 | 35408 ft | 443 kts | 132° |
| 2026-04-30 10:11 | 50.99571 | 7.50514 | 35558 ft | 443 kts | 132° |
| 2026-04-30 10:11 | 50.97340 | 7.53898 | 35702 ft | 443 kts | 131° |
| 2026-04-30 10:11 | 50.95136 | 7.57237 | 35846 ft | 443 kts | 131° |
| 2026-04-30 10:11 | 50.92895 | 7.60628 | 35976 ft | 443 kts | 131° |
| 2026-04-30 10:12 | 50.90678 | 7.63979 | 36099 ft | 443 kts | 131° |
| 2026-04-30 10:12 | 50.88455 | 7.67335 | 36212 ft | 444 kts | 132° |
| 2026-04-30 10:12 | 50.86214 | 7.70712 | 36328 ft | 444 kts | 132° |
| 2026-04-30 10:12 | 50.83965 | 7.74096 | 36445 ft | 444 kts | 132° |
| 2026-04-30 10:13 | 50.81725 | 7.77455 | 36546 ft | 444 kts | 133° |
| 2026-04-30 10:13 | 50.79496 | 7.80778 | 36647 ft | 444 kts | 133° |
| 2026-04-30 10:13 | 50.77264 | 7.84098 | 36745 ft | 444 kts | 133° |
| 2026-04-30 10:14 | 50.72789 | 7.90750 | 36933 ft | 444 kts | 133° |
| 2026-04-30 10:14 | 50.66042 | 8.00744 | 37195 ft | 445 kts | 132° |
| 2026-04-30 10:15 | 50.61538 | 8.07426 | 37377 ft | 443 kts | 131° |
| 2026-04-30 10:15 | 50.57506 | 8.14658 | 37401 ft | 441 kts | 123° |
| 2026-04-30 10:16 | 50.53733 | 8.22186 | 37398 ft | 443 kts | 124° |
| 2026-04-30 10:17 | 50.47945 | 8.33477 | 37398 ft | 442 kts | 124° |
| 2026-04-30 10:17 | 50.42195 | 8.44694 | 37398 ft | 441 kts | 124° |
| 2026-04-30 10:18 | 50.38335 | 8.52198 | 37400 ft | 441 kts | 124° |
| 2026-04-30 10:19 | 50.32129 | 8.62839 | 37410 ft | 445 kts | 128° |
| 2026-04-30 10:19 | 50.27905 | 8.69856 | 37418 ft | 445 kts | 128° |
| 2026-04-30 10:20 | 50.23669 | 8.76907 | 37424 ft | 445 kts | 129° |
| 2026-04-30 10:20 | 50.17341 | 8.87408 | 37425 ft | 445 kts | 129° |
| 2026-04-30 10:21 | 50.13090 | 8.94444 | 37425 ft | 445 kts | 128° |
| 2026-04-30 10:21 | 50.08859 | 9.01434 | 37425 ft | 446 kts | 128° |
| 2026-04-30 10:22 | 50.04602 | 9.08446 | 37425 ft | 446 kts | 128° |
| 2026-04-30 10:22 | 50.00363 | 9.15409 | 37425 ft | 446 kts | 128° |
| 2026-04-30 10:23 | 49.96110 | 9.22381 | 37425 ft | 448 kts | 128° |
| 2026-04-30 10:23 | 49.91818 | 9.29392 | 37425 ft | 448 kts | 128° |
| 2026-04-30 10:24 | 49.87627 | 9.36220 | 37412 ft | 448 kts | 128° |
| 2026-04-30 10:24 | 49.83976 | 9.42154 | 37400 ft | 447 kts | 128° |
| 2026-04-30 10:25 | 49.79711 | 9.49067 | 37386 ft | 447 kts | 128° |
| 2026-04-30 10:25 | 49.75434 | 9.55985 | 37371 ft | 447 kts | 128° |
| 2026-04-30 10:26 | 49.71148 | 9.62896 | 37371 ft | 447 kts | 128° |
| 2026-04-30 10:26 | 49.66798 | 9.69893 | 37371 ft | 448 kts | 129° |
| 2026-04-30 10:27 | 49.62466 | 9.76837 | 37371 ft | 449 kts | 128° |
| 2026-04-30 10:27 | 49.58126 | 9.83779 | 37371 ft | 449 kts | 128° |
| 2026-04-30 10:28 | 49.53828 | 9.90636 | 37383 ft | 448 kts | 129° |
| 2026-04-30 10:28 | 49.49507 | 9.97508 | 37397 ft | 448 kts | 129° |
| 2026-04-30 10:29 | 49.45175 | 10.04377 | 37411 ft | 449 kts | 128° |
| 2026-04-30 10:29 | 49.40826 | 10.11257 | 37420 ft | 450 kts | 128° |
| 2026-04-30 10:30 | 49.36484 | 10.18110 | 37420 ft | 451 kts | 128° |
| 2026-04-30 10:30 | 49.32109 | 10.24993 | 37420 ft | 451 kts | 128° |
| 2026-04-30 10:31 | 49.27764 | 10.31810 | 37420 ft | 451 kts | 128° |
| 2026-04-30 10:31 | 49.23392 | 10.38648 | 37414 ft | 451 kts | 129° |
| 2026-04-30 10:32 | 49.18903 | 10.45378 | 37406 ft | 453 kts | 130° |
| 2026-04-30 10:32 | 49.14380 | 10.52056 | 37398 ft | 452 kts | 130° |
| 2026-04-30 10:33 | 49.09886 | 10.58713 | 37393 ft | 453 kts | 130° |
| 2026-04-30 10:33 | 49.05416 | 10.65312 | 37393 ft | 454 kts | 131° |
| 2026-04-30 10:34 | 49.00912 | 10.71950 | 37393 ft | 456 kts | 131° |
| 2026-04-30 10:34 | 48.96362 | 10.78634 | 37393 ft | 456 kts | 131° |
| 2026-04-30 10:35 | 48.91798 | 10.85322 | 37394 ft | 454 kts | 131° |
| 2026-04-30 10:35 | 48.87254 | 10.91965 | 37395 ft | 453 kts | 131° |
| 2026-04-30 10:36 | 48.82691 | 10.98620 | 37397 ft | 455 kts | 131° |
| 2026-04-30 10:36 | 48.78123 | 11.05264 | 37398 ft | 456 kts | 131° |
| 2026-04-30 10:37 | 48.73558 | 11.11885 | 37398 ft | 457 kts | 131° |
| 2026-04-30 10:37 | 48.68981 | 11.18508 | 37398 ft | 461 kts | 131° |
| 2026-04-30 10:38 | 48.64332 | 11.25217 | 37398 ft | 465 kts | 130° |
| 2026-04-30 10:38 | 48.59942 | 11.32326 | 37392 ft | 465 kts | 126° |
| 2026-04-30 10:39 | 48.55644 | 11.39630 | 37385 ft | 469 kts | 127° |
| 2026-04-30 10:39 | 48.51239 | 11.46939 | 37377 ft | 473 kts | 127° |
| 2026-04-30 10:40 | 48.46823 | 11.54269 | 37370 ft | 473 kts | 127° |
| 2026-04-30 10:40 | 48.42424 | 11.61533 | 37370 ft | 472 kts | 127° |
| 2026-04-30 10:41 | 48.37982 | 11.68834 | 37371 ft | 473 kts | 128° |
| 2026-04-30 10:41 | 48.33543 | 11.76114 | 37371 ft | 474 kts | 128° |
| 2026-04-30 10:42 | 48.29093 | 11.83390 | 37378 ft | 474 kts | 128° |
| 2026-04-30 10:42 | 48.24638 | 11.90654 | 37386 ft | 474 kts | 128° |
| 2026-04-30 10:43 | 48.20200 | 11.97872 | 37394 ft | 474 kts | 128° |
| 2026-04-30 10:43 | 48.15727 | 12.05125 | 37398 ft | 474 kts | 128° |
| 2026-04-30 10:44 | 48.11264 | 12.12340 | 37398 ft | 474 kts | 128° |
| 2026-04-30 10:44 | 48.06807 | 12.19528 | 37398 ft | 474 kts | 128° |
| 2026-04-30 10:45 | 48.02322 | 12.26741 | 37399 ft | 474 kts | 128° |
| 2026-04-30 10:45 | 47.97864 | 12.33888 | 37395 ft | 474 kts | 128° |
| 2026-04-30 10:46 | 47.93367 | 12.41085 | 37388 ft | 476 kts | 128° |
| 2026-04-30 10:46 | 47.88856 | 12.48280 | 37381 ft | 476 kts | 128° |
| 2026-04-30 10:47 | 47.84351 | 12.55441 | 37372 ft | 477 kts | 128° |
| 2026-04-30 10:47 | 47.79819 | 12.62629 | 37371 ft | 478 kts | 128° |
| 2026-04-30 10:48 | 47.75278 | 12.69812 | 37372 ft | 480 kts | 129° |
| 2026-04-30 10:48 | 47.70697 | 12.77034 | 37371 ft | 480 kts | 129° |
| 2026-04-30 10:49 | 47.66098 | 12.84182 | 37371 ft | 481 kts | 131° |
| 2026-04-30 10:49 | 47.61350 | 12.91130 | 37371 ft | 482 kts | 131° |
| 2026-04-30 10:50 | 47.56615 | 12.98105 | 37371 ft | 483 kts | 131° |
| 2026-04-30 10:50 | 47.51857 | 13.05105 | 37371 ft | 484 kts | 131° |
| 2026-04-30 10:51 | 47.47126 | 13.12046 | 37368 ft | 483 kts | 131° |
| 2026-04-30 10:51 | 47.42366 | 13.19013 | 37370 ft | 483 kts | 131° |
| 2026-04-30 10:52 | 47.37574 | 13.26011 | 37371 ft | 484 kts | 131° |
| 2026-04-30 10:52 | 47.32849 | 13.32969 | 37370 ft | 483 kts | 128° |
| 2026-04-30 10:53 | 47.28603 | 13.40567 | 37371 ft | 481 kts | 124° |
| 2026-04-30 10:53 | 47.24418 | 13.48258 | 37371 ft | 481 kts | 125° |
| 2026-04-30 10:54 | 47.20231 | 13.55847 | 37371 ft | 481 kts | 124° |
| 2026-04-30 10:54 | 47.16036 | 13.63454 | 37371 ft | 482 kts | 124° |
| 2026-04-30 10:55 | 47.11807 | 13.71093 | 37371 ft | 483 kts | 126° |
| 2026-04-30 10:55 | 47.07584 | 13.78702 | 37371 ft | 483 kts | 126° |
| 2026-04-30 10:56 | 47.03342 | 13.86324 | 37371 ft | 484 kts | 126° |
| 2026-04-30 10:56 | 46.99094 | 13.93932 | 37370 ft | 484 kts | 126° |
| 2026-04-30 10:57 | 46.94813 | 14.01582 | 37361 ft | 485 kts | 126° |
| 2026-04-30 10:57 | 46.90536 | 14.09204 | 37353 ft | 486 kts | 126° |
| 2026-04-30 10:58 | 46.86269 | 14.16783 | 37346 ft | 487 kts | 127° |
| 2026-04-30 10:58 | 46.81960 | 14.24415 | 37353 ft | 487 kts | 127° |
| 2026-04-30 10:59 | 46.77663 | 14.32007 | 37360 ft | 487 kts | 127° |
| 2026-04-30 10:59 | 46.73373 | 14.39564 | 37367 ft | 487 kts | 127° |
| 2026-04-30 11:00 | 46.69054 | 14.47152 | 37371 ft | 488 kts | 127° |
| 2026-04-30 11:00 | 46.64716 | 14.54753 | 37371 ft | 488 kts | 127° |
| 2026-04-30 11:01 | 46.60403 | 14.62287 | 37371 ft | 488 kts | 127° |
| 2026-04-30 11:01 | 46.56054 | 14.69866 | 37371 ft | 489 kts | 128° |
| 2026-04-30 11:02 | 46.51694 | 14.77442 | 37371 ft | 489 kts | 128° |
| 2026-04-30 11:02 | 46.47320 | 14.85021 | 37371 ft | 489 kts | 128° |
| 2026-04-30 11:03 | 46.42962 | 14.92551 | 37375 ft | 490 kts | 128° |
| 2026-04-30 11:04 | 46.36403 | 15.03847 | 37387 ft | 489 kts | 128° |
| 2026-04-30 11:04 | 46.32056 | 15.11308 | 37396 ft | 490 kts | 128° |
| 2026-04-30 11:05 | 46.27660 | 15.18833 | 37398 ft | 489 kts | 128° |
| 2026-04-30 11:05 | 46.23270 | 15.26327 | 37398 ft | 490 kts | 128° |
| 2026-04-30 11:06 | 46.18876 | 15.33808 | 37398 ft | 492 kts | 128° |
| 2026-04-30 11:06 | 46.14469 | 15.41289 | 37398 ft | 492 kts | 128° |
| 2026-04-30 11:07 | 46.10034 | 15.48797 | 37398 ft | 492 kts | 129° |
| 2026-04-30 11:07 | 46.05617 | 15.56256 | 37398 ft | 492 kts | 129° |
| 2026-04-30 11:08 | 46.01179 | 15.63729 | 37398 ft | 493 kts | 129° |
| 2026-04-30 11:08 | 45.96705 | 15.71238 | 37398 ft | 494 kts | 130° |
| 2026-04-30 11:09 | 45.92121 | 15.78536 | 37398 ft | 494 kts | 132° |
| 2026-04-30 11:09 | 45.87494 | 15.85792 | 37398 ft | 493 kts | 131° |
| 2026-04-30 11:10 | 45.82901 | 15.93036 | 37398 ft | 493 kts | 131° |
| 2026-04-30 11:10 | 45.78298 | 16.00270 | 37398 ft | 494 kts | 131° |
| 2026-04-30 11:11 | 45.73681 | 16.07511 | 37398 ft | 494 kts | 131° |
| 2026-04-30 11:11 | 45.69045 | 16.14764 | 37398 ft | 495 kts | 131° |
| 2026-04-30 11:12 | 45.64397 | 16.22019 | 37398 ft | 495 kts | 131° |
| 2026-04-30 11:12 | 45.59786 | 16.29197 | 37398 ft | 495 kts | 131° |
| 2026-04-30 11:13 | 45.55122 | 16.36438 | 37391 ft | 497 kts | 132° |
| 2026-04-30 11:13 | 45.50436 | 16.43693 | 37383 ft | 498 kts | 132° |
| 2026-04-30 11:14 | 45.45766 | 16.50907 | 37375 ft | 497 kts | 132° |
| 2026-04-30 11:14 | 45.41099 | 16.58095 | 37371 ft | 498 kts | 132° |
| 2026-04-30 11:15 | 45.36390 | 16.65329 | 37371 ft | 499 kts | 133° |
| 2026-04-30 11:15 | 45.31683 | 16.72543 | 37371 ft | 500 kts | 133° |
| 2026-04-30 11:16 | 45.26965 | 16.79752 | 37371 ft | 500 kts | 133° |
| 2026-04-30 11:16 | 45.22232 | 16.86966 | 37371 ft | 501 kts | 133° |
| 2026-04-30 11:17 | 45.17492 | 16.94170 | 37371 ft | 500 kts | 133° |
| 2026-04-30 11:17 | 45.12770 | 17.01329 | 37371 ft | 499 kts | 133° |
| 2026-04-30 11:18 | 45.08046 | 17.08474 | 37371 ft | 500 kts | 133° |
| 2026-04-30 11:18 | 45.00742 | 17.18905 | 37371 ft | 500 kts | 137° |
| 2026-04-30 11:19 | 44.95708 | 17.25724 | 37370 ft | 501 kts | 136° |
| 2026-04-30 11:19 | 44.90727 | 17.32548 | 37371 ft | 501 kts | 136° |
| 2026-04-30 11:20 | 44.85730 | 17.39363 | 37371 ft | 502 kts | 136° |
| 2026-04-30 11:20 | 44.80708 | 17.46204 | 37371 ft | 502 kts | 136° |
| 2026-04-30 11:21 | 44.75731 | 17.52970 | 37371 ft | 501 kts | 137° |
| 2026-04-30 11:21 | 44.70723 | 17.59760 | 37371 ft | 502 kts | 137° |
| 2026-04-30 11:22 | 44.65679 | 17.66584 | 37371 ft | 503 kts | 138° |
| 2026-04-30 11:22 | 44.60666 | 17.73349 | 37371 ft | 503 kts | 138° |
| 2026-04-30 11:23 | 44.55622 | 17.80138 | 37367 ft | 504 kts | 138° |
| 2026-04-30 11:24 | 44.48076 | 17.90264 | 37356 ft | 504 kts | 138° |
| 2026-04-30 11:24 | 44.42985 | 17.97072 | 37340 ft | 505 kts | 138° |
| 2026-04-30 11:25 | 44.35396 | 18.07192 | 37324 ft | 503 kts | 138° |
| 2026-04-30 11:26 | 44.25298 | 18.20596 | 37317 ft | 504 kts | 139° |
| 2026-04-30 11:26 | 44.20197 | 18.27342 | 37317 ft | 505 kts | 138° |
| 2026-04-30 11:27 | 44.15105 | 18.34058 | 37317 ft | 504 kts | 138° |
| 2026-04-30 11:27 | 44.10047 | 18.40714 | 37317 ft | 504 kts | 138° |
| 2026-04-30 11:28 | 44.02413 | 18.50729 | 37317 ft | 503 kts | 138° |
| 2026-04-30 11:29 | 43.97333 | 18.57372 | 37317 ft | 504 kts | 139° |
| 2026-04-30 11:29 | 43.89663 | 18.67373 | 37317 ft | 507 kts | 140° |
| 2026-04-30 11:30 | 43.81986 | 18.77345 | 37311 ft | 505 kts | 140° |
| 2026-04-30 11:31 | 43.76876 | 18.83961 | 37285 ft | 506 kts | 140° |
| 2026-04-30 11:31 | 43.71730 | 18.90607 | 37259 ft | 507 kts | 140° |
| 2026-04-30 11:32 | 43.66570 | 18.97254 | 37235 ft | 507 kts | 140° |
| 2026-04-30 11:32 | 43.61442 | 19.03846 | 37244 ft | 506 kts | 140° |
| 2026-04-30 11:33 | 43.53718 | 19.13743 | 37255 ft | 506 kts | 140° |
| 2026-04-30 11:33 | 43.48410 | 19.20045 | 37262 ft | 504 kts | 144° |
| 2026-04-30 11:34 | 43.42960 | 19.26082 | 37263 ft | 505 kts | 144° |
| 2026-04-30 11:34 | 43.37561 | 19.32182 | 37263 ft | 505 kts | 144° |
| 2026-04-30 11:35 | 43.32142 | 19.38287 | 37263 ft | 504 kts | 144° |
| 2026-04-30 11:35 | 43.26717 | 19.44390 | 37263 ft | 504 kts | 144° |
| 2026-04-30 11:36 | 43.21326 | 19.50445 | 37263 ft | 504 kts | 144° |
| 2026-04-30 11:36 | 43.15902 | 19.56525 | 37252 ft | 506 kts | 144° |
| 2026-04-30 11:37 | 43.10480 | 19.62588 | 37233 ft | 506 kts | 144° |
| 2026-04-30 11:37 | 43.05032 | 19.68669 | 37215 ft | 505 kts | 145° |
| 2026-04-30 11:38 | 42.99582 | 19.74735 | 37209 ft | 505 kts | 145° |
| 2026-04-30 11:38 | 42.94134 | 19.80784 | 37208 ft | 506 kts | 145° |
| 2026-04-30 11:39 | 42.88675 | 19.86832 | 37209 ft | 507 kts | 145° |
| 2026-04-30 11:39 | 42.83246 | 19.92835 | 37209 ft | 506 kts | 145° |
| 2026-04-30 11:40 | 42.77779 | 19.98918 | 37221 ft | 508 kts | 143° |
| 2026-04-30 11:40 | 42.72826 | 20.05730 | 37238 ft | 512 kts | 133° |
| 2026-04-30 11:41 | 42.68268 | 20.13170 | 37245 ft | 513 kts | 133° |
| 2026-04-30 11:41 | 42.63693 | 20.20570 | 37237 ft | 513 kts | 133° |
| 2026-04-30 11:42 | 42.59114 | 20.28045 | 37222 ft | 514 kts | 133° |
| 2026-04-30 11:42 | 42.54570 | 20.35471 | 37209 ft | 514 kts | 133° |
| 2026-04-30 11:43 | 42.50005 | 20.42920 | 37209 ft | 514 kts | 133° |
| 2026-04-30 11:43 | 42.45444 | 20.50356 | 37209 ft | 514 kts | 133° |
| 2026-04-30 11:44 | 42.40885 | 20.57775 | 37209 ft | 515 kts | 133° |
| 2026-04-30 11:44 | 42.36314 | 20.65196 | 37209 ft | 514 kts | 134° |
| 2026-04-30 11:45 | 42.31741 | 20.72601 | 37209 ft | 512 kts | 134° |
| 2026-04-30 11:45 | 42.27194 | 20.79946 | 37209 ft | 512 kts | 134° |
| 2026-04-30 11:46 | 42.22617 | 20.87320 | 37209 ft | 512 kts | 134° |
| 2026-04-30 11:46 | 42.18057 | 20.94649 | 37222 ft | 512 kts | 134° |
| 2026-04-30 11:47 | 42.13340 | 21.01853 | 37238 ft | 509 kts | 139° |
| 2026-04-30 11:47 | 42.08027 | 21.07960 | 37253 ft | 499 kts | 151° |
| 2026-04-30 11:48 | 42.02221 | 21.12944 | 37255 ft | 498 kts | 153° |
| 2026-04-30 11:48 | 41.96397 | 21.17980 | 37244 ft | 497 kts | 153° |
| 2026-04-30 11:49 | 41.90611 | 21.22921 | 37236 ft | 496 kts | 153° |
| 2026-04-30 11:49 | 41.84766 | 21.27856 | 37236 ft | 496 kts | 153° |
| 2026-04-30 11:50 | 41.78969 | 21.32732 | 37236 ft | 495 kts | 153° |
| 2026-04-30 11:50 | 41.73136 | 21.37618 | 37236 ft | 495 kts | 153° |
| 2026-04-30 11:51 | 41.67312 | 21.42483 | 37236 ft | 495 kts | 153° |
| 2026-04-30 11:51 | 41.61466 | 21.47354 | 37236 ft | 495 kts | 153° |
| 2026-04-30 11:52 | 41.55613 | 21.52219 | 37236 ft | 495 kts | 153° |
| 2026-04-30 11:52 | 41.49781 | 21.57054 | 37236 ft | 495 kts | 153° |
| 2026-04-30 11:53 | 41.43953 | 21.61877 | 37236 ft | 495 kts | 153° |
| 2026-04-30 11:53 | 41.38106 | 21.66704 | 37194 ft | 495 kts | 154° |
| 2026-04-30 11:54 | 41.32259 | 21.71521 | 37144 ft | 495 kts | 154° |
| 2026-04-30 11:54 | 41.26426 | 21.76317 | 37100 ft | 495 kts | 154° |
| 2026-04-30 11:55 | 41.20587 | 21.81105 | 37101 ft | 494 kts | 154° |
| 2026-04-30 11:55 | 41.14796 | 21.85845 | 37101 ft | 494 kts | 154° |
| 2026-04-30 11:56 | 41.09067 | 21.90956 | 37101 ft | 501 kts | 145° |
| 2026-04-30 11:56 | 41.04275 | 21.97666 | 37104 ft | 509 kts | 130° |
| 2026-04-30 11:57 | 41.00061 | 22.05204 | 37100 ft | 508 kts | 130° |
| 2026-04-30 11:57 | 40.95782 | 22.12618 | 37101 ft | 507 kts | 131° |
| 2026-04-30 11:58 | 40.91536 | 22.20016 | 37101 ft | 506 kts | 130° |
| 2026-04-30 11:58 | 40.87271 | 22.27447 | 37101 ft | 506 kts | 130° |
| 2026-04-30 11:59 | 40.83031 | 22.34820 | 37101 ft | 507 kts | 130° |
| 2026-04-30 11:59 | 40.80741 | 22.38324 | 37090 ft | 500 kts | 142° |
| 2026-04-30 11:59 | 40.77904 | 22.40848 | 37100 ft | 485 kts | 161° |
| 2026-04-30 12:00 | 40.71597 | 22.43914 | 37074 ft | 488 kts | 162° |
| 2026-04-30 12:00 | 40.65425 | 22.47547 | 37054 ft | 490 kts | 160° |
| 2026-04-30 12:01 | 40.59253 | 22.51225 | 37046 ft | 489 kts | 160° |
| 2026-04-30 12:01 | 40.53059 | 22.54940 | 37047 ft | 488 kts | 160° |
| 2026-04-30 12:02 | 40.46904 | 22.58657 | 37047 ft | 489 kts | 160° |
| 2026-04-30 12:02 | 40.40744 | 22.62379 | 37047 ft | 489 kts | 160° |
| 2026-04-30 12:03 | 40.31314 | 22.67193 | 37047 ft | 487 kts | 162° |
| 2026-04-30 12:04 | 40.25166 | 22.70747 | 37037 ft | 487 kts | 162° |
| 2026-04-30 12:04 | 40.18902 | 22.74120 | 37026 ft | 486 kts | 163° |
| 2026-04-30 12:05 | 40.12691 | 22.77410 | 37020 ft | 486 kts | 163° |
| 2026-04-30 12:05 | 40.06419 | 22.80707 | 37020 ft | 486 kts | 163° |
| 2026-04-30 12:06 | 40.00184 | 22.83959 | 37024 ft | 486 kts | 163° |
| 2026-04-30 12:06 | 39.93898 | 22.87225 | 37028 ft | 486 kts | 163° |
| 2026-04-30 12:07 | 39.87669 | 22.90453 | 37031 ft | 487 kts | 163° |
| 2026-04-30 12:07 | 39.81360 | 22.93715 | 37035 ft | 486 kts | 163° |
| 2026-04-30 12:08 | 39.75104 | 22.96940 | 37038 ft | 486 kts | 163° |
| 2026-04-30 12:08 | 39.68876 | 23.00144 | 37042 ft | 485 kts | 163° |
| 2026-04-30 12:09 | 39.62595 | 23.03369 | 37046 ft | 485 kts | 163° |
| 2026-04-30 12:09 | 39.56349 | 23.06569 | 37047 ft | 485 kts | 163° |
| 2026-04-30 12:10 | 39.50118 | 23.09755 | 37047 ft | 485 kts | 163° |
| 2026-04-30 12:10 | 39.43852 | 23.12955 | 37044 ft | 479 kts | 163° |
| 2026-04-30 12:10 | 39.40805 | 23.14512 | 36682 ft | 473 kts | 163° |
| 2026-04-30 12:11 | 39.37777 | 23.16054 | 36036 ft | 469 kts | 163° |
| 2026-04-30 12:11 | 39.34769 | 23.17584 | 35494 ft | 458 kts | 163° |
| 2026-04-30 12:11 | 39.31857 | 23.19066 | 34966 ft | 448 kts | 163° |
| 2026-04-30 12:11 | 39.28993 | 23.20522 | 34445 ft | 437 kts | 163° |
| 2026-04-30 12:12 | 39.26207 | 23.21934 | 33939 ft | 431 kts | 163° |
| 2026-04-30 12:12 | 39.23410 | 23.23344 | 33431 ft | 436 kts | 163° |
| 2026-04-30 12:12 | 39.20610 | 23.24759 | 32905 ft | 432 kts | 163° |
| 2026-04-30 12:12 | 39.17842 | 23.26166 | 32390 ft | 423 kts | 163° |
| 2026-04-30 12:13 | 39.15158 | 23.27527 | 31897 ft | 416 kts | 163° |
| 2026-04-30 12:13 | 39.12479 | 23.28876 | 31409 ft | 421 kts | 163° |
| 2026-04-30 12:13 | 39.09738 | 23.30255 | 30885 ft | 417 kts | 163° |
| 2026-04-30 12:13 | 39.07077 | 23.31601 | 30386 ft | 408 kts | 163° |
| 2026-04-30 12:14 | 39.04503 | 23.32902 | 29910 ft | 403 kts | 162° |